URO803 SCEL-SAEZ
Flight info
| Callsign | URO803 |
|---|---|
| Flight time | 1h 23m |
| Altitude | 37000 |
| Route | ALBAL7C ALBAL UM424 ASADA ASADA7X |
| Aircraft | A346/H-SDE2E3FGHIJ3J4J5M1RWXY/LB1D1 |
Departure
| Time | 2026-05-06 23:21 |
|---|---|
| Airport | Comodoro Arturo Merino Benítez International Airport (SCEL) |
Arrival
| Time | 2026-05-07 00:45 |
|---|---|
| Airport | Ezeiza International Airport - Ministro Pistarini (SAEZ) |
| Time | Latitude | Longitude | Altitude | Speed | Heading |
|---|---|---|---|---|---|
| 2026-05-06 22:53 | -33.40816 | -70.78921 | 1572 ft | 0 kts | 227° |
| 2026-05-06 23:08 | -33.40815 | -70.78920 | 1572 ft | 1 kts | 227° |
| 2026-05-06 23:08 | -33.40798 | -70.78899 | 1572 ft | 4 kts | 225° |
| 2026-05-06 23:08 | -33.40779 | -70.78876 | 1572 ft | 4 kts | 225° |
| 2026-05-06 23:09 | -33.40762 | -70.78855 | 1572 ft | 4 kts | 234° |
| 2026-05-06 23:09 | -33.40755 | -70.78836 | 1572 ft | 4 kts | 271° |
| 2026-05-06 23:09 | -33.40756 | -70.78828 | 1572 ft | 4 kts | 320° |
| 2026-05-06 23:09 | -33.40776 | -70.78816 | 1572 ft | 4 kts | 340° |
| 2026-05-06 23:10 | -33.40800 | -70.78806 | 1572 ft | 2 kts | 339° |
| 2026-05-06 23:10 | -33.40801 | -70.78806 | 1572 ft | 0 kts | 339° |
| 2026-05-06 23:12 | -33.40796 | -70.78808 | 1572 ft | 4 kts | 339° |
| 2026-05-06 23:12 | -33.40758 | -70.78822 | 1572 ft | 7 kts | 347° |
| 2026-05-06 23:12 | -33.40689 | -70.78834 | 1572 ft | 12 kts | 354° |
| 2026-05-06 23:13 | -33.40596 | -70.78842 | 1572 ft | 14 kts | 356° |
| 2026-05-06 23:13 | -33.40490 | -70.78846 | 1572 ft | 16 kts | 359° |
| 2026-05-06 23:13 | -33.40369 | -70.78848 | 1572 ft | 19 kts | 358° |
| 2026-05-06 23:13 | -33.40231 | -70.78853 | 1572 ft | 21 kts | 358° |
| 2026-05-06 23:14 | -33.40081 | -70.78859 | 1572 ft | 19 kts | 356° |
| 2026-05-06 23:14 | -33.39939 | -70.78870 | 1572 ft | 21 kts | 356° |
| 2026-05-06 23:14 | -33.39785 | -70.78879 | 1573 ft | 23 kts | 357° |
| 2026-05-06 23:14 | -33.39628 | -70.78885 | 1573 ft | 13 kts | 358° |
| 2026-05-06 23:15 | -33.39533 | -70.78891 | 1573 ft | 15 kts | 356° |
| 2026-05-06 23:15 | -33.39430 | -70.78909 | 1573 ft | 15 kts | 324° |
| 2026-05-06 23:15 | -33.39401 | -70.79038 | 1573 ft | 18 kts | 270° |
| 2026-05-06 23:15 | -33.39405 | -70.79197 | 1573 ft | 20 kts | 267° |
| 2026-05-06 23:16 | -33.39413 | -70.79375 | 1573 ft | 22 kts | 267° |
| 2026-05-06 23:16 | -33.39422 | -70.79566 | 1573 ft | 24 kts | 267° |
| 2026-05-06 23:16 | -33.39427 | -70.79726 | 1573 ft | 16 kts | 275° |
| 2026-05-06 23:16 | -33.39358 | -70.79833 | 1573 ft | 18 kts | 292° |
| 2026-05-06 23:17 | -33.39329 | -70.79986 | 1574 ft | 20 kts | 297° |
| 2026-05-06 23:17 | -33.39210 | -70.80060 | 1574 ft | 21 kts | 355° |
| 2026-05-06 23:17 | -33.39058 | -70.80070 | 1575 ft | 23 kts | 357° |
| 2026-05-06 23:17 | -33.38895 | -70.80079 | 1575 ft | 24 kts | 357° |
| 2026-05-06 23:18 | -33.38721 | -70.80088 | 1575 ft | 26 kts | 358° |
| 2026-05-06 23:18 | -33.38539 | -70.80098 | 1575 ft | 27 kts | 357° |
| 2026-05-06 23:18 | -33.38348 | -70.80109 | 1574 ft | 28 kts | 357° |
| 2026-05-06 23:18 | -33.38149 | -70.80121 | 1574 ft | 29 kts | 358° |
| 2026-05-06 23:19 | -33.37945 | -70.80132 | 1574 ft | 30 kts | 358° |
| 2026-05-06 23:19 | -33.37737 | -70.80141 | 1575 ft | 30 kts | 358° |
| 2026-05-06 23:19 | -33.37548 | -70.80150 | 1575 ft | 24 kts | 357° |
| 2026-05-06 23:19 | -33.37382 | -70.80160 | 1575 ft | 25 kts | 357° |
| 2026-05-06 23:20 | -33.37205 | -70.80171 | 1576 ft | 26 kts | 357° |
| 2026-05-06 23:20 | -33.37046 | -70.80191 | 1575 ft | 20 kts | 327° |
| 2026-05-06 23:20 | -33.37071 | -70.80315 | 1581 ft | 19 kts | 208° |
| 2026-05-06 23:20 | -33.37360 | -70.80362 | 1582 ft | 72 kts | 179° |
| 2026-05-06 23:21 | -33.38054 | -70.80327 | 1580 ft | 126 kts | 178° |
| 2026-05-06 23:21 | -33.39088 | -70.80273 | 1583 ft | 169 kts | 178° |
| 2026-05-06 23:21 | -33.40329 | -70.80196 | 1951 ft | 179 kts | 179° |
| 2026-05-06 23:21 | -33.41534 | -70.80135 | 2640 ft | 175 kts | 180° |
| 2026-05-06 23:22 | -33.42763 | -70.80076 | 3220 ft | 179 kts | 179° |
| 2026-05-06 23:22 | -33.44019 | -70.80004 | 3711 ft | 181 kts | 179° |
| 2026-05-06 23:22 | -33.45292 | -70.79927 | 4175 ft | 185 kts | 178° |
| 2026-05-06 23:22 | -33.46592 | -70.79849 | 4658 ft | 189 kts | 179° |
| 2026-05-06 23:23 | -33.47936 | -70.79768 | 5121 ft | 196 kts | 180° |
| 2026-05-06 23:23 | -33.49332 | -70.79698 | 5534 ft | 207 kts | 181° |
| 2026-05-06 23:23 | -33.50830 | -70.79638 | 5883 ft | 223 kts | 181° |
| 2026-05-06 23:23 | -33.52441 | -70.79566 | 6223 ft | 240 kts | 180° |
| 2026-05-06 23:24 | -33.54171 | -70.79428 | 6541 ft | 259 kts | 177° |
| 2026-05-06 23:24 | -33.56040 | -70.79209 | 6922 ft | 278 kts | 176° |
| 2026-05-06 23:24 | -33.58179 | -70.78941 | 7584 ft | 287 kts | 176° |
| 2026-05-06 23:25 | -33.60188 | -70.78688 | 8450 ft | 288 kts | 176° |
| 2026-05-06 23:25 | -33.62201 | -70.78437 | 9332 ft | 290 kts | 177° |
| 2026-05-06 23:25 | -33.64220 | -70.78188 | 10176 ft | 293 kts | 177° |
| 2026-05-06 23:25 | -33.66279 | -70.77938 | 10759 ft | 304 kts | 178° |
| 2026-05-06 23:26 | -33.68444 | -70.77679 | 11156 ft | 321 kts | 178° |
| 2026-05-06 23:26 | -33.70732 | -70.77404 | 11533 ft | 339 kts | 178° |
| 2026-05-06 23:26 | -33.73142 | -70.77114 | 11915 ft | 357 kts | 177° |
| 2026-05-06 23:26 | -33.75675 | -70.76807 | 12265 ft | 374 kts | 177° |
| 2026-05-06 23:27 | -33.78315 | -70.76479 | 12738 ft | 387 kts | 176° |
| 2026-05-06 23:27 | -33.80941 | -70.75594 | 13432 ft | 400 kts | 157° |
| 2026-05-06 23:27 | -33.83204 | -70.73607 | 14215 ft | 409 kts | 136° |
| 2026-05-06 23:27 | -33.84811 | -70.70735 | 14911 ft | 418 kts | 117° |
| 2026-05-06 23:28 | -33.86023 | -70.67524 | 15604 ft | 422 kts | 115° |
| 2026-05-06 23:28 | -33.87201 | -70.64299 | 16201 ft | 428 kts | 115° |
| 2026-05-06 23:28 | -33.88419 | -70.60996 | 16827 ft | 433 kts | 115° |
| 2026-05-06 23:28 | -33.89686 | -70.57679 | 17512 ft | 438 kts | 119° |
| 2026-05-06 23:29 | -33.91413 | -70.54663 | 18090 ft | 438 kts | 134° |
| 2026-05-06 23:29 | -33.93563 | -70.52046 | 18725 ft | 441 kts | 140° |
| 2026-05-06 23:29 | -33.95820 | -70.49485 | 19122 ft | 448 kts | 141° |
| 2026-05-06 23:29 | -33.98305 | -70.47213 | 19577 ft | 448 kts | 155° |
| 2026-05-06 23:30 | -34.01122 | -70.45652 | 20134 ft | 445 kts | 163° |
| 2026-05-06 23:30 | -34.04027 | -70.44329 | 20689 ft | 447 kts | 165° |
| 2026-05-06 23:30 | -34.06973 | -70.43033 | 21231 ft | 452 kts | 166° |
| 2026-05-06 23:30 | -34.09947 | -70.41726 | 21758 ft | 456 kts | 166° |
| 2026-05-06 23:31 | -34.12985 | -70.40650 | 22264 ft | 455 kts | 173° |
| 2026-05-06 23:31 | -34.16047 | -70.39875 | 22811 ft | 456 kts | 175° |
| 2026-05-06 23:31 | -34.19179 | -70.39139 | 23288 ft | 461 kts | 175° |
| 2026-05-06 23:31 | -34.22347 | -70.38401 | 23770 ft | 465 kts | 176° |
| 2026-05-06 23:32 | -34.25537 | -70.37657 | 24232 ft | 469 kts | 176° |
| 2026-05-06 23:32 | -34.28751 | -70.36889 | 24644 ft | 474 kts | 174° |
| 2026-05-06 23:32 | -34.31908 | -70.35463 | 24919 ft | 495 kts | 155° |
| 2026-05-06 23:32 | -34.34604 | -70.32773 | 25266 ft | 511 kts | 134° |
| 2026-05-06 23:33 | -34.36499 | -70.29093 | 25670 ft | 520 kts | 113° |
| 2026-05-06 23:33 | -34.37372 | -70.24890 | 26030 ft | 523 kts | 94° |
| 2026-05-06 23:33 | -34.37190 | -70.20479 | 26340 ft | 524 kts | 78° |
| 2026-05-06 23:33 | -34.36539 | -70.16120 | 26643 ft | 528 kts | 75° |
| 2026-05-06 23:34 | -34.35884 | -70.11691 | 26888 ft | 536 kts | 77° |
| 2026-05-06 23:34 | -34.35353 | -70.07199 | 27247 ft | 541 kts | 79° |
| 2026-05-06 23:34 | -34.34939 | -70.02650 | 27654 ft | 543 kts | 81° |
| 2026-05-06 23:34 | -34.34609 | -69.98078 | 28161 ft | 544 kts | 82° |
| 2026-05-06 23:35 | -34.34325 | -69.93505 | 28737 ft | 544 kts | 83° |
| 2026-05-06 23:35 | -34.34061 | -69.88932 | 29325 ft | 544 kts | 83° |
| 2026-05-06 23:35 | -34.33802 | -69.84351 | 29820 ft | 544 kts | 83° |
| 2026-05-06 23:35 | -34.33538 | -69.79770 | 30328 ft | 544 kts | 83° |
| 2026-05-06 23:36 | -34.33273 | -69.75196 | 30739 ft | 544 kts | 84° |
| 2026-05-06 23:36 | -34.33096 | -69.72164 | 31074 ft | 543 kts | 84° |
| 2026-05-06 23:36 | -34.32738 | -69.66131 | 31691 ft | 541 kts | 84° |
| 2026-05-06 23:36 | -34.32467 | -69.61586 | 32228 ft | 538 kts | 84° |
| 2026-05-06 23:37 | -34.32196 | -69.57071 | 32726 ft | 536 kts | 85° |
| 2026-05-06 23:37 | -34.32015 | -69.54077 | 33052 ft | 535 kts | 85° |
| 2026-05-06 23:37 | -34.31744 | -69.49591 | 33433 ft | 532 kts | 85° |
| 2026-05-06 23:37 | -34.31474 | -69.45148 | 34156 ft | 525 kts | 85° |
| 2026-05-06 23:38 | -34.31206 | -69.40768 | 34731 ft | 519 kts | 85° |
| 2026-05-06 23:38 | -34.30938 | -69.36418 | 35142 ft | 516 kts | 85° |
| 2026-05-06 23:38 | -34.30669 | -69.32087 | 35504 ft | 515 kts | 86° |
| 2026-05-06 23:38 | -34.30399 | -69.27749 | 35778 ft | 516 kts | 86° |
| 2026-05-06 23:39 | -34.30126 | -69.23403 | 35981 ft | 517 kts | 86° |
| 2026-05-06 23:39 | -34.29850 | -69.19053 | 36249 ft | 518 kts | 86° |
| 2026-05-06 23:39 | -34.29580 | -69.14688 | 36391 ft | 521 kts | 85° |
| 2026-05-06 23:40 | -34.29248 | -69.05848 | 36570 ft | 529 kts | 91° |
| 2026-05-06 23:40 | -34.29389 | -69.01442 | 36736 ft | 531 kts | 95° |
| 2026-05-06 23:40 | -34.29757 | -68.96995 | 36829 ft | 531 kts | 98° |
| 2026-05-06 23:41 | -34.30894 | -68.88168 | 36832 ft | 530 kts | 100° |
| 2026-05-06 23:41 | -34.32086 | -68.79351 | 36809 ft | 529 kts | 99° |
| 2026-05-06 23:42 | -34.33239 | -68.70524 | 36794 ft | 529 kts | 99° |
| 2026-05-06 23:42 | -34.34365 | -68.61761 | 36835 ft | 529 kts | 99° |
| 2026-05-06 23:43 | -34.35489 | -68.52951 | 36786 ft | 529 kts | 98° |
| 2026-05-06 23:43 | -34.36611 | -68.44133 | 36756 ft | 528 kts | 98° |
| 2026-05-06 23:44 | -34.37718 | -68.35325 | 36765 ft | 528 kts | 98° |
| 2026-05-06 23:44 | -34.38819 | -68.26523 | 36752 ft | 528 kts | 98° |
| 2026-05-06 23:45 | -34.39917 | -68.17709 | 36723 ft | 528 kts | 97° |
| 2026-05-06 23:45 | -34.41013 | -68.08880 | 36743 ft | 529 kts | 97° |
| 2026-05-06 23:46 | -34.42097 | -68.00039 | 36749 ft | 529 kts | 97° |
| 2026-05-06 23:46 | -34.43168 | -67.91262 | 36747 ft | 529 kts | 97° |
| 2026-05-06 23:47 | -34.44240 | -67.82421 | 36748 ft | 529 kts | 97° |
| 2026-05-06 23:47 | -34.45296 | -67.73565 | 36747 ft | 529 kts | 97° |
| 2026-05-06 23:48 | -34.46324 | -67.64723 | 36749 ft | 529 kts | 97° |
| 2026-05-06 23:48 | -34.47344 | -67.55874 | 36747 ft | 529 kts | 97° |
| 2026-05-06 23:49 | -34.48359 | -67.47061 | 36745 ft | 532 kts | 96° |
| 2026-05-06 23:49 | -34.49373 | -67.38136 | 36751 ft | 532 kts | 96° |
| 2026-05-06 23:50 | -34.50379 | -67.29218 | 36748 ft | 532 kts | 96° |
| 2026-05-06 23:50 | -34.51879 | -67.15891 | 36737 ft | 534 kts | 95° |
| 2026-05-06 23:51 | -34.52882 | -67.06927 | 36776 ft | 534 kts | 95° |
| 2026-05-06 23:51 | -34.53870 | -66.97995 | 36754 ft | 533 kts | 95° |
| 2026-05-06 23:52 | -34.54851 | -66.89068 | 36729 ft | 533 kts | 95° |
| 2026-05-06 23:52 | -34.55826 | -66.80167 | 36747 ft | 535 kts | 95° |
| 2026-05-06 23:53 | -34.56796 | -66.71193 | 36751 ft | 535 kts | 94° |
| 2026-05-06 23:53 | -34.57760 | -66.62211 | 36761 ft | 535 kts | 94° |
| 2026-05-06 23:54 | -34.58717 | -66.53230 | 36732 ft | 537 kts | 95° |
| 2026-05-06 23:54 | -34.59674 | -66.44189 | 36761 ft | 540 kts | 95° |
| 2026-05-06 23:55 | -34.60631 | -66.35131 | 36762 ft | 539 kts | 95° |
| 2026-05-06 23:55 | -34.61576 | -66.26182 | 36773 ft | 534 kts | 94° |
| 2026-05-06 23:56 | -34.62501 | -66.17180 | 36755 ft | 539 kts | 94° |
| 2026-05-06 23:56 | -34.63428 | -66.08158 | 36756 ft | 540 kts | 94° |
| 2026-05-06 23:57 | -34.64356 | -65.99102 | 36750 ft | 540 kts | 94° |
| 2026-05-06 23:57 | -34.65279 | -65.90021 | 36732 ft | 542 kts | 94° |
| 2026-05-06 23:58 | -34.66200 | -65.80868 | 36740 ft | 545 kts | 94° |
| 2026-05-06 23:58 | -34.67115 | -65.71708 | 36727 ft | 545 kts | 94° |
| 2026-05-06 23:59 | -34.68024 | -65.62537 | 36728 ft | 545 kts | 94° |
| 2026-05-06 23:59 | -34.68926 | -65.53396 | 36741 ft | 547 kts | 93° |
| 2026-05-07 00:00 | -34.69820 | -65.44189 | 36725 ft | 546 kts | 93° |
| 2026-05-07 00:00 | -34.70708 | -65.35006 | 36719 ft | 547 kts | 93° |
| 2026-05-07 00:01 | -34.71591 | -65.25857 | 36694 ft | 547 kts | 93° |
| 2026-05-07 00:01 | -34.72468 | -65.16662 | 36710 ft | 547 kts | 93° |
| 2026-05-07 00:02 | -34.73339 | -65.07441 | 36713 ft | 547 kts | 93° |
| 2026-05-07 00:02 | -34.74200 | -64.98242 | 36716 ft | 547 kts | 93° |
| 2026-05-07 00:03 | -34.75052 | -64.89059 | 36704 ft | 545 kts | 93° |
| 2026-05-07 00:03 | -34.75892 | -64.79943 | 36748 ft | 544 kts | 92° |
| 2026-05-07 00:04 | -34.76726 | -64.70787 | 36718 ft | 544 kts | 92° |
| 2026-05-07 00:04 | -34.77555 | -64.61631 | 36717 ft | 544 kts | 92° |
| 2026-05-07 00:05 | -34.78400 | -64.52443 | 36715 ft | 544 kts | 92° |
| 2026-05-07 00:05 | -34.79234 | -64.43282 | 36711 ft | 544 kts | 92° |
| 2026-05-07 00:06 | -34.80057 | -64.34115 | 36667 ft | 543 kts | 92° |
| 2026-05-07 00:06 | -34.80866 | -64.25027 | 36703 ft | 543 kts | 92° |
| 2026-05-07 00:07 | -34.81672 | -64.15878 | 36708 ft | 543 kts | 92° |
| 2026-05-07 00:07 | -34.82470 | -64.06728 | 36749 ft | 542 kts | 92° |
| 2026-05-07 00:08 | -34.83262 | -63.97612 | 36691 ft | 539 kts | 92° |
| 2026-05-07 00:08 | -34.84046 | -63.88508 | 36706 ft | 539 kts | 92° |
| 2026-05-07 00:09 | -34.84817 | -63.79453 | 36703 ft | 539 kts | 91° |
| 2026-05-07 00:09 | -34.85582 | -63.70371 | 36686 ft | 537 kts | 91° |
| 2026-05-07 00:10 | -34.86336 | -63.61315 | 36697 ft | 536 kts | 91° |
| 2026-05-07 00:10 | -34.87082 | -63.52269 | 36702 ft | 536 kts | 91° |
| 2026-05-07 00:11 | -34.87836 | -63.43225 | 36662 ft | 536 kts | 91° |
| 2026-05-07 00:11 | -34.88582 | -63.34237 | 36728 ft | 536 kts | 91° |
| 2026-05-07 00:12 | -34.89318 | -63.25178 | 36703 ft | 536 kts | 91° |
| 2026-05-07 00:12 | -34.90048 | -63.16109 | 36700 ft | 536 kts | 91° |
| 2026-05-07 00:13 | -34.90772 | -63.07050 | 36685 ft | 536 kts | 90° |
| 2026-05-07 00:13 | -34.91484 | -62.98039 | 36687 ft | 536 kts | 90° |
| 2026-05-07 00:14 | -34.92193 | -62.88965 | 36701 ft | 536 kts | 90° |
| 2026-05-07 00:14 | -34.92896 | -62.79889 | 36661 ft | 536 kts | 90° |
| 2026-05-07 00:15 | -34.93587 | -62.70865 | 36694 ft | 536 kts | 90° |
| 2026-05-07 00:15 | -34.94275 | -62.61801 | 36721 ft | 536 kts | 90° |
| 2026-05-07 00:16 | -34.94952 | -62.52758 | 36698 ft | 535 kts | 90° |
| 2026-05-07 00:16 | -34.95619 | -62.43682 | 36686 ft | 535 kts | 90° |
| 2026-05-07 00:17 | -34.96276 | -62.34633 | 36695 ft | 535 kts | 90° |
| 2026-05-07 00:17 | -34.96778 | -62.25582 | 36693 ft | 533 kts | 87° |
| 2026-05-07 00:18 | -34.97073 | -62.16535 | 36675 ft | 533 kts | 87° |
| 2026-05-07 00:18 | -34.97355 | -62.07528 | 36689 ft | 534 kts | 87° |
| 2026-05-07 00:19 | -34.97637 | -61.98468 | 36691 ft | 534 kts | 87° |
| 2026-05-07 00:19 | -34.97916 | -61.89407 | 36663 ft | 533 kts | 87° |
| 2026-05-07 00:20 | -34.98196 | -61.80432 | 36697 ft | 530 kts | 86° |
| 2026-05-07 00:20 | -34.98462 | -61.71433 | 36693 ft | 530 kts | 86° |
| 2026-05-07 00:21 | -34.98718 | -61.62428 | 36695 ft | 530 kts | 86° |
| 2026-05-07 00:21 | -34.98971 | -61.53412 | 36697 ft | 530 kts | 86° |
| 2026-05-07 00:22 | -34.99213 | -61.44432 | 36694 ft | 530 kts | 86° |
| 2026-05-07 00:22 | -34.99446 | -61.35449 | 36697 ft | 530 kts | 86° |
| 2026-05-07 00:23 | -34.99368 | -61.26492 | 36686 ft | 523 kts | 78° |
| 2026-05-07 00:23 | -34.98698 | -61.19131 | 36559 ft | 515 kts | 77° |
| 2026-05-07 00:24 | -34.98274 | -61.14852 | 36057 ft | 513 kts | 76° |
| 2026-05-07 00:24 | -34.97852 | -61.10520 | 35429 ft | 514 kts | 77° |
| 2026-05-07 00:24 | -34.97442 | -61.06191 | 34881 ft | 512 kts | 77° |
| 2026-05-07 00:24 | -34.97040 | -61.01859 | 34246 ft | 512 kts | 77° |
| 2026-05-07 00:25 | -34.96638 | -60.97515 | 33435 ft | 518 kts | 77° |
| 2026-05-07 00:25 | -34.96231 | -60.93108 | 32552 ft | 523 kts | 77° |
| 2026-05-07 00:25 | -34.95826 | -60.88694 | 31889 ft | 524 kts | 77° |
| 2026-05-07 00:25 | -34.95425 | -60.84282 | 31318 ft | 522 kts | 77° |
| 2026-05-07 00:26 | -34.95025 | -60.79885 | 30732 ft | 520 kts | 77° |
| 2026-05-07 00:26 | -34.94621 | -60.75487 | 30076 ft | 521 kts | 77° |
| 2026-05-07 00:26 | -34.94212 | -60.71090 | 29283 ft | 522 kts | 78° |
| 2026-05-07 00:26 | -34.93808 | -60.66749 | 28533 ft | 522 kts | 78° |
| 2026-05-07 00:27 | -34.93399 | -60.62342 | 27771 ft | 522 kts | 78° |
| 2026-05-07 00:27 | -34.92989 | -60.57934 | 27005 ft | 522 kts | 78° |
| 2026-05-07 00:27 | -34.92579 | -60.53546 | 26427 ft | 519 kts | 78° |
| 2026-05-07 00:27 | -34.92172 | -60.49194 | 25980 ft | 512 kts | 78° |
| 2026-05-07 00:28 | -34.91768 | -60.44900 | 25440 ft | 507 kts | 78° |
| 2026-05-07 00:28 | -34.91363 | -60.40647 | 24923 ft | 503 kts | 78° |
| 2026-05-07 00:28 | -34.90960 | -60.36425 | 24424 ft | 498 kts | 78° |
| 2026-05-07 00:28 | -34.90561 | -60.32247 | 23927 ft | 494 kts | 78° |
| 2026-05-07 00:29 | -34.90166 | -60.28133 | 23425 ft | 491 kts | 78° |
| 2026-05-07 00:29 | -34.89769 | -60.24007 | 22873 ft | 487 kts | 78° |
| 2026-05-07 00:30 | -34.88586 | -60.11859 | 21238 ft | 474 kts | 78° |
| 2026-05-07 00:30 | -34.88199 | -60.07891 | 20733 ft | 469 kts | 78° |
| 2026-05-07 00:30 | -34.87812 | -60.03945 | 20214 ft | 465 kts | 78° |
| 2026-05-07 00:30 | -34.87429 | -60.00039 | 19708 ft | 461 kts | 78° |
| 2026-05-07 00:31 | -34.87046 | -59.96162 | 18882 ft | 456 kts | 78° |
| 2026-05-07 00:31 | -34.86669 | -59.92352 | 17962 ft | 449 kts | 78° |
| 2026-05-07 00:31 | -34.86304 | -59.88661 | 17020 ft | 440 kts | 78° |
| 2026-05-07 00:31 | -34.85933 | -59.84984 | 15969 ft | 434 kts | 78° |
| 2026-05-07 00:32 | -34.85568 | -59.81351 | 14970 ft | 430 kts | 78° |
| 2026-05-07 00:32 | -34.85206 | -59.77751 | 14037 ft | 424 kts | 78° |
| 2026-05-07 00:32 | -34.84850 | -59.74204 | 13073 ft | 419 kts | 78° |
| 2026-05-07 00:32 | -34.84496 | -59.70704 | 12056 ft | 413 kts | 79° |
| 2026-05-07 00:33 | -34.84145 | -59.67238 | 11111 ft | 408 kts | 79° |
| 2026-05-07 00:33 | -34.83799 | -59.63826 | 10174 ft | 402 kts | 79° |
| 2026-05-07 00:33 | -34.83458 | -59.60489 | 9536 ft | 400 kts | 79° |
| 2026-05-07 00:33 | -34.83119 | -59.57143 | 9088 ft | 395 kts | 78° |
| 2026-05-07 00:34 | -34.82786 | -59.53862 | 8852 ft | 384 kts | 78° |
| 2026-05-07 00:34 | -34.82463 | -59.50684 | 8694 ft | 371 kts | 78° |
| 2026-05-07 00:34 | -34.82149 | -59.47610 | 8592 ft | 357 kts | 78° |
| 2026-05-07 00:34 | -34.81847 | -59.44669 | 8510 ft | 343 kts | 78° |
| 2026-05-07 00:35 | -34.81555 | -59.41836 | 8431 ft | 330 kts | 77° |
| 2026-05-07 00:35 | -34.81272 | -59.39103 | 8305 ft | 320 kts | 77° |
| 2026-05-07 00:35 | -34.80991 | -59.36423 | 8183 ft | 318 kts | 77° |
| 2026-05-07 00:35 | -34.80706 | -59.33750 | 8062 ft | 317 kts | 77° |
| 2026-05-07 00:36 | -34.80424 | -59.31079 | 7925 ft | 317 kts | 77° |
| 2026-05-07 00:36 | -34.80148 | -59.28414 | 7800 ft | 317 kts | 76° |
| 2026-05-07 00:36 | -34.79873 | -59.25786 | 7670 ft | 316 kts | 76° |
| 2026-05-07 00:36 | -34.79592 | -59.23130 | 7530 ft | 315 kts | 76° |
| 2026-05-07 00:37 | -34.79312 | -59.20484 | 7380 ft | 315 kts | 76° |
| 2026-05-07 00:37 | -34.79031 | -59.17842 | 7214 ft | 314 kts | 76° |
| 2026-05-07 00:37 | -34.78751 | -59.15189 | 6997 ft | 313 kts | 76° |
| 2026-05-07 00:37 | -34.78473 | -59.12562 | 6729 ft | 312 kts | 77° |
| 2026-05-07 00:38 | -34.78195 | -59.09937 | 6441 ft | 311 kts | 76° |
| 2026-05-07 00:38 | -34.77919 | -59.07334 | 6139 ft | 309 kts | 76° |
| 2026-05-07 00:38 | -34.77644 | -59.04748 | 5825 ft | 307 kts | 76° |
| 2026-05-07 00:38 | -34.77370 | -59.02174 | 5508 ft | 305 kts | 75° |
| 2026-05-07 00:39 | -34.77100 | -58.99626 | 5241 ft | 301 kts | 75° |
| 2026-05-07 00:39 | -34.76839 | -58.97155 | 5220 ft | 286 kts | 75° |
| 2026-05-07 00:39 | -34.76589 | -58.94811 | 5207 ft | 276 kts | 74° |
| 2026-05-07 00:39 | -34.76337 | -58.92497 | 5149 ft | 275 kts | 74° |
| 2026-05-07 00:40 | -34.76107 | -58.90186 | 4996 ft | 277 kts | 81° |
| 2026-05-07 00:40 | -34.76253 | -58.87835 | 4727 ft | 281 kts | 93° |
| 2026-05-07 00:40 | -34.76625 | -58.85457 | 4250 ft | 289 kts | 96° |
| 2026-05-07 00:40 | -34.77052 | -58.83046 | 3793 ft | 292 kts | 96° |
| 2026-05-07 00:41 | -34.77478 | -58.80667 | 3359 ft | 282 kts | 96° |
| 2026-05-07 00:41 | -34.77894 | -58.78371 | 2961 ft | 268 kts | 96° |
| 2026-05-07 00:41 | -34.78272 | -58.76238 | 2852 ft | 242 kts | 94° |
| 2026-05-07 00:41 | -34.78608 | -58.74339 | 3045 ft | 217 kts | 94° |
| 2026-05-07 00:42 | -34.78918 | -58.72628 | 3010 ft | 205 kts | 92° |
| 2026-05-07 00:42 | -34.79186 | -58.70941 | 2742 ft | 201 kts | 90° |
| 2026-05-07 00:42 | -34.79420 | -58.69272 | 2391 ft | 197 kts | 91° |
| 2026-05-07 00:42 | -34.79679 | -58.67643 | 2010 ft | 195 kts | 96° |
| 2026-05-07 00:43 | -34.79986 | -58.66031 | 1718 ft | 196 kts | 96° |
| 2026-05-07 00:43 | -34.80288 | -58.64415 | 1423 ft | 194 kts | 95° |
| 2026-05-07 00:43 | -34.80568 | -58.62821 | 1156 ft | 190 kts | 95° |
| 2026-05-07 00:43 | -34.80843 | -58.61248 | 944 ft | 186 kts | 99° |
| 2026-05-07 00:44 | -34.81119 | -58.59728 | 788 ft | 180 kts | 98° |
| 2026-05-07 00:44 | -34.81386 | -58.58256 | 596 ft | 176 kts | 97° |
| 2026-05-07 00:44 | -34.81646 | -58.56826 | 368 ft | 169 kts | 98° |
| 2026-05-07 00:44 | -34.81890 | -58.55448 | 160 ft | 164 kts | 97° |
| 2026-05-07 00:45 | -34.82114 | -58.54175 | 92 ft | 125 kts | 103° |
| 2026-05-07 00:45 | -34.82248 | -58.53439 | 90 ft | 67 kts | 103° |
| 2026-05-07 00:45 | -34.82328 | -58.52988 | 94 ft | 24 kts | 101° |
| 2026-05-07 00:45 | -34.82234 | -58.52907 | 92 ft | 22 kts | 343° |
| 2026-05-07 00:46 | -34.82114 | -58.52950 | 90 ft | 13 kts | 343° |
| 2026-05-07 00:46 | -34.82035 | -58.53017 | 88 ft | 16 kts | 300° |
| 2026-05-07 00:46 | -34.82005 | -58.53125 | 88 ft | 9 kts | 283° |
| 2026-05-07 00:46 | -34.81994 | -58.53178 | 89 ft | 3 kts | 283° |
| 2026-05-07 00:47 | -34.81987 | -58.53219 | 85 ft | 7 kts | 283° |
| 2026-05-07 00:47 | -34.81973 | -58.53287 | 85 ft | 10 kts | 283° |
| 2026-05-07 00:47 | -34.81955 | -58.53381 | 86 ft | 13 kts | 283° |
| 2026-05-07 00:47 | -34.81932 | -58.53495 | 86 ft | 15 kts | 283° |
| 2026-05-07 00:48 | -34.81887 | -58.53622 | 86 ft | 18 kts | 315° |
| 2026-05-07 00:48 | -34.81778 | -58.53702 | 84 ft | 13 kts | 334° |
| 2026-05-07 00:48 | -34.81688 | -58.53756 | 88 ft | 16 kts | 342° |
| 2026-05-07 00:48 | -34.81582 | -58.53709 | 86 ft | 18 kts | 36° |
| 2026-05-07 00:49 | -34.81464 | -58.53625 | 86 ft | 21 kts | 23° |
| 2026-05-07 00:49 | -34.81318 | -58.53588 | 86 ft | 22 kts | 360° |
| 2026-05-07 00:49 | -34.81179 | -58.53577 | 88 ft | 21 kts | 16° |
| 2026-05-07 00:49 | -34.81109 | -58.53562 | 88 ft | 10 kts | 356° |
| 2026-05-07 00:50 | -34.81031 | -58.53578 | 86 ft | 13 kts | 346° |
| 2026-05-07 00:50 | -34.80960 | -58.53603 | 86 ft | 7 kts | 334° |
| 2026-05-07 00:50 | -34.80949 | -58.53613 | 87 ft | 1 kts | 313° |
| 2026-05-07 00:50 | -34.80941 | -58.53635 | 88 ft | 5 kts | 280° |
| 2026-05-07 00:51 | -34.80948 | -58.53682 | 85 ft | 4 kts | 254° |
| 2026-05-07 00:51 | -34.80952 | -58.53703 | 85 ft | 1 kts | 254° |
| 2026-05-07 00:51 | -34.80954 | -58.53708 | 84 ft | 0 kts | 254° |